sensor_id;sensor_type;location;lat;lon;timestamp;P1;durP1;ratioP1;P2;durP2;ratioP2
60851;SDS011;48553;50.766;2.900;2023-03-23T00:01:18;4.10;;;1.63;;
60851;SDS011;48553;50.766;2.900;2023-03-23T00:04:20;5.65;;;1.73;;
60851;SDS011;48553;50.766;2.900;2023-03-23T00:07:21;5.90;;;1.80;;
60851;SDS011;48553;50.766;2.900;2023-03-23T00:10:23;3.55;;;1.90;;
60851;SDS011;48553;50.766;2.900;2023-03-23T00:13:26;3.50;;;1.92;;
60851;SDS011;48553;50.766;2.900;2023-03-23T00:16:29;3.40;;;1.77;;
60851;SDS011;48553;50.766;2.900;2023-03-23T00:19:32;4.15;;;1.92;;
60851;SDS011;48553;50.766;2.900;2023-03-23T00:22:32;4.78;;;1.80;;
60851;SDS011;48553;50.766;2.900;2023-03-23T00:25:37;2.42;;;1.50;;
60851;SDS011;48553;50.766;2.900;2023-03-23T00:28:38;4.18;;;1.60;;
60851;SDS011;48553;50.766;2.900;2023-03-23T00:31:39;4.70;;;1.65;;
60851;SDS011;48553;50.766;2.900;2023-03-23T00:34:40;4.32;;;1.55;;
60851;SDS011;48553;50.766;2.900;2023-03-23T00:37:43;4.50;;;1.60;;
60851;SDS011;48553;50.766;2.900;2023-03-23T00:40:43;2.97;;;1.60;;
60851;SDS011;48553;50.766;2.900;2023-03-23T00:43:44;4.82;;;1.70;;
60851;SDS011;48553;50.766;2.900;2023-03-23T00:46:48;3.20;;;1.60;;
60851;SDS011;48553;50.766;2.900;2023-03-23T00:49:49;5.03;;;1.52;;
60851;SDS011;48553;50.766;2.900;2023-03-23T00:52:52;4.32;;;1.35;;
60851;SDS011;48553;50.766;2.900;2023-03-23T00:55:55;2.40;;;1.30;;
60851;SDS011;48553;50.766;2.900;2023-03-23T00:58:56;3.05;;;1.45;;
60851;SDS011;48553;50.766;2.900;2023-03-23T01:01:56;2.80;;;1.33;;
60851;SDS011;48553;50.766;2.900;2023-03-23T01:04:56;3.75;;;1.70;;
60851;SDS011;48553;50.766;2.900;2023-03-23T01:07:58;2.78;;;1.20;;
60851;SDS011;48553;50.766;2.900;2023-03-23T01:11:05;4.20;;;1.23;;
60851;SDS011;48553;50.766;2.900;2023-03-23T01:14:06;4.30;;;1.27;;
60851;SDS011;48553;50.766;2.900;2023-03-23T01:17:07;3.42;;;1.35;;
60851;SDS011;48553;50.766;2.900;2023-03-23T01:20:08;4.30;;;1.38;;
60851;SDS011;48553;50.766;2.900;2023-03-23T01:23:09;2.35;;;1.10;;
60851;SDS011;48553;50.766;2.900;2023-03-23T01:26:14;3.92;;;1.35;;
60851;SDS011;48553;50.766;2.900;2023-03-23T01:29:20;2.13;;;1.00;;
60851;SDS011;48553;50.766;2.900;2023-03-23T01:32:20;3.05;;;1.30;;
60851;SDS011;48553;50.766;2.900;2023-03-23T01:35:21;3.10;;;1.50;;
60851;SDS011;48553;50.766;2.900;2023-03-23T01:38:21;5.25;;;1.20;;
60851;SDS011;48553;50.766;2.900;2023-03-23T01:41:22;4.00;;;1.15;;
60851;SDS011;48553;50.766;2.900;2023-03-23T01:47:23;2.30;;;1.08;;
60851;SDS011;48553;50.766;2.900;2023-03-23T01:50:26;3.70;;;1.30;;
60851;SDS011;48553;50.766;2.900;2023-03-23T01:53:31;4.32;;;1.13;;
60851;SDS011;48553;50.766;2.900;2023-03-23T01:56:39;4.07;;;1.15;;
60851;SDS011;48553;50.766;2.900;2023-03-23T01:59:45;4.97;;;1.10;;
60851;SDS011;48553;50.766;2.900;2023-03-23T02:02:49;3.90;;;1.40;;
60851;SDS011;48553;50.766;2.900;2023-03-23T02:05:52;3.15;;;1.25;;
60851;SDS011;48553;50.766;2.900;2023-03-23T02:08:54;2.88;;;1.10;;
60851;SDS011;48553;50.766;2.900;2023-03-23T02:11:56;4.00;;;1.00;;
60851;SDS011;48553;50.766;2.900;2023-03-23T02:14:57;5.45;;;1.20;;
60851;SDS011;48553;50.766;2.900;2023-03-23T02:21:47;6.07;;;1.30;;
60851;SDS011;48553;50.766;2.900;2023-03-23T02:25:20;4.90;;;1.20;;
60851;SDS011;48553;50.766;2.900;2023-03-23T02:35:04;5.18;;;1.33;;
60851;SDS011;48553;50.766;2.900;2023-03-23T02:38:35;5.60;;;1.42;;
60851;SDS011;48553;50.766;2.900;2023-03-23T02:41:47;4.75;;;1.10;;
60851;SDS011;48553;50.766;2.900;2023-03-23T02:44:53;3.42;;;1.15;;
60851;SDS011;48553;50.766;2.900;2023-03-23T02:47:55;7.70;;;1.40;;
60851;SDS011;48553;50.766;2.900;2023-03-23T02:50:56;8.10;;;1.40;;
60851;SDS011;48553;50.766;2.900;2023-03-23T02:54:00;4.97;;;1.02;;
60851;SDS011;48553;50.766;2.900;2023-03-23T02:57:03;5.72;;;1.25;;
60851;SDS011;48553;50.766;2.900;2023-03-23T03:00:04;7.43;;;1.30;;
60851;SDS011;48553;50.766;2.900;2023-03-23T03:03:12;3.50;;;1.17;;
60851;SDS011;48553;50.766;2.900;2023-03-23T03:09:32;4.60;;;1.27;;
60851;SDS011;48553;50.766;2.900;2023-03-23T03:12:53;5.95;;;1.33;;
60851;SDS011;48553;50.766;2.900;2023-03-23T03:22:07;5.65;;;1.23;;
60851;SDS011;48553;50.766;2.900;2023-03-23T03:25:10;5.35;;;1.27;;
60851;SDS011;48553;50.766;2.900;2023-03-23T03:28:15;11.07;;;1.35;;
60851;SDS011;48553;50.766;2.900;2023-03-23T03:31:26;5.00;;;1.23;;
60851;SDS011;48553;50.766;2.900;2023-03-23T03:34:29;4.53;;;1.08;;
60851;SDS011;48553;50.766;2.900;2023-03-23T03:37:35;7.95;;;1.30;;
60851;SDS011;48553;50.766;2.900;2023-03-23T03:40:38;8.82;;;1.58;;
60851;SDS011;48553;50.766;2.900;2023-03-23T03:43:38;5.65;;;1.30;;
60851;SDS011;48553;50.766;2.900;2023-03-23T03:46:39;8.27;;;1.08;;
60851;SDS011;48553;50.766;2.900;2023-03-23T03:49:39;5.13;;;1.20;;
60851;SDS011;48553;50.766;2.900;2023-03-23T03:52:40;9.23;;;1.33;;
60851;SDS011;48553;50.766;2.900;2023-03-23T03:55:41;6.18;;;1.23;;
60851;SDS011;48553;50.766;2.900;2023-03-23T03:58:45;9.03;;;1.60;;
60851;SDS011;48553;50.766;2.900;2023-03-23T04:01:48;6.60;;;1.52;;
60851;SDS011;48553;50.766;2.900;2023-03-23T04:04:53;7.53;;;1.27;;
60851;SDS011;48553;50.766;2.900;2023-03-23T04:07:54;7.05;;;1.83;;
60851;SDS011;48553;50.766;2.900;2023-03-23T04:11:01;7.47;;;1.42;;
60851;SDS011;48553;50.766;2.900;2023-03-23T04:14:01;5.97;;;1.38;;
60851;SDS011;48553;50.766;2.900;2023-03-23T04:17:02;9.40;;;1.55;;
60851;SDS011;48553;50.766;2.900;2023-03-23T04:20:03;14.13;;;2.20;;
60851;SDS011;48553;50.766;2.900;2023-03-23T04:23:34;11.57;;;1.92;;
60851;SDS011;48553;50.766;2.900;2023-03-23T04:26:35;7.50;;;1.73;;
60851;SDS011;48553;50.766;2.900;2023-03-23T04:29:35;11.32;;;1.70;;
60851;SDS011;48553;50.766;2.900;2023-03-23T04:32:36;10.35;;;1.88;;
60851;SDS011;48553;50.766;2.900;2023-03-23T04:35:42;9.90;;;1.48;;
60851;SDS011;48553;50.766;2.900;2023-03-23T04:38:42;8.07;;;1.80;;
60851;SDS011;48553;50.766;2.900;2023-03-23T04:41:43;8.38;;;1.40;;
60851;SDS011;48553;50.766;2.900;2023-03-23T04:44:44;4.68;;;1.00;;
60851;SDS011;48553;50.766;2.900;2023-03-23T04:47:53;6.88;;;1.30;;
60851;SDS011;48553;50.766;2.900;2023-03-23T04:50:57;6.70;;;1.00;;
60851;SDS011;48553;50.766;2.900;2023-03-23T04:53:59;4.13;;;1.10;;
60851;SDS011;48553;50.766;2.900;2023-03-23T04:57:00;6.20;;;1.10;;
60851;SDS011;48553;50.766;2.900;2023-03-23T05:00:01;5.55;;;0.90;;
60851;SDS011;48553;50.766;2.900;2023-03-23T05:03:09;5.72;;;0.80;;
60851;SDS011;48553;50.766;2.900;2023-03-23T05:06:10;6.25;;;1.00;;
60851;SDS011;48553;50.766;2.900;2023-03-23T05:09:11;4.38;;;0.68;;
60851;SDS011;48553;50.766;2.900;2023-03-23T05:12:12;4.45;;;0.73;;
60851;SDS011;48553;50.766;2.900;2023-03-23T05:15:13;3.22;;;0.60;;
60851;SDS011;48553;50.766;2.900;2023-03-23T05:18:15;3.72;;;0.75;;
60851;SDS011;48553;50.766;2.900;2023-03-23T05:21:16;4.68;;;0.60;;
60851;SDS011;48553;50.766;2.900;2023-03-23T05:24:16;5.22;;;0.57;;
60851;SDS011;48553;50.766;2.900;2023-03-23T05:27:17;4.00;;;0.80;;
60851;SDS011;48553;50.766;2.900;2023-03-23T05:30:19;3.13;;;0.50;;
60851;SDS011;48553;50.766;2.900;2023-03-23T05:33:21;2.67;;;0.60;;
60851;SDS011;48553;50.766;2.900;2023-03-23T05:36:22;3.45;;;0.80;;
60851;SDS011;48553;50.766;2.900;2023-03-23T05:39:22;3.33;;;0.93;;
60851;SDS011;48553;50.766;2.900;2023-03-23T05:42:23;3.97;;;0.77;;
60851;SDS011;48553;50.766;2.900;2023-03-23T05:45:24;4.20;;;1.00;;
60851;SDS011;48553;50.766;2.900;2023-03-23T05:48:25;5.68;;;1.00;;
60851;SDS011;48553;50.766;2.900;2023-03-23T05:51:26;6.00;;;1.00;;
60851;SDS011;48553;50.766;2.900;2023-03-23T05:54:27;3.10;;;0.80;;
60851;SDS011;48553;50.766;2.900;2023-03-23T05:57:27;5.63;;;1.05;;
60851;SDS011;48553;50.766;2.900;2023-03-23T06:00:28;4.53;;;0.90;;
60851;SDS011;48553;50.766;2.900;2023-03-23T06:03:29;5.90;;;1.20;;
60851;SDS011;48553;50.766;2.900;2023-03-23T06:06:30;4.53;;;1.08;;
60851;SDS011;48553;50.766;2.900;2023-03-23T06:09:32;4.70;;;0.77;;
60851;SDS011;48553;50.766;2.900;2023-03-23T06:12:32;7.60;;;1.17;;
60851;SDS011;48553;50.766;2.900;2023-03-23T06:15:33;3.97;;;1.00;;
60851;SDS011;48553;50.766;2.900;2023-03-23T06:18:33;5.55;;;1.10;;
60851;SDS011;48553;50.766;2.900;2023-03-23T06:21:36;3.70;;;1.05;;
60851;SDS011;48553;50.766;2.900;2023-03-23T06:24:37;5.70;;;1.00;;
60851;SDS011;48553;50.766;2.900;2023-03-23T06:27:38;4.75;;;0.88;;
60851;SDS011;48553;50.766;2.900;2023-03-23T06:30:39;5.88;;;0.95;;
60851;SDS011;48553;50.766;2.900;2023-03-23T06:33:39;4.00;;;0.80;;
60851;SDS011;48553;50.766;2.900;2023-03-23T06:36:40;4.53;;;0.80;;
60851;SDS011;48553;50.766;2.900;2023-03-23T06:39:43;4.93;;;0.90;;
60851;SDS011;48553;50.766;2.900;2023-03-23T06:42:43;2.72;;;0.70;;
60851;SDS011;48553;50.766;2.900;2023-03-23T06:45:44;5.82;;;0.70;;
60851;SDS011;48553;50.766;2.900;2023-03-23T06:48:45;5.15;;;0.73;;
60851;SDS011;48553;50.766;2.900;2023-03-23T06:51:49;3.42;;;0.82;;
60851;SDS011;48553;50.766;2.900;2023-03-23T06:54:50;6.35;;;0.88;;
60851;SDS011;48553;50.766;2.900;2023-03-23T06:57:51;3.85;;;0.90;;
60851;SDS011;48553;50.766;2.900;2023-03-23T07:00:55;4.63;;;0.93;;
60851;SDS011;48553;50.766;2.900;2023-03-23T07:03:56;2.67;;;0.82;;
60851;SDS011;48553;50.766;2.900;2023-03-23T07:06:57;2.95;;;0.60;;
60851;SDS011;48553;50.766;2.900;2023-03-23T07:09:57;4.85;;;1.00;;
60851;SDS011;48553;50.766;2.900;2023-03-23T07:12:58;3.88;;;0.90;;
60851;SDS011;48553;50.766;2.900;2023-03-23T07:15:59;3.90;;;1.10;;
60851;SDS011;48553;50.766;2.900;2023-03-23T07:19:00;4.00;;;1.10;;
60851;SDS011;48553;50.766;2.900;2023-03-23T07:22:00;2.22;;;0.85;;
60851;SDS011;48553;50.766;2.900;2023-03-23T07:25:01;5.10;;;0.80;;
60851;SDS011;48553;50.766;2.900;2023-03-23T07:28:02;5.90;;;0.93;;
60851;SDS011;48553;50.766;2.900;2023-03-23T07:31:03;3.33;;;0.70;;
60851;SDS011;48553;50.766;2.900;2023-03-23T07:34:03;3.47;;;0.80;;
60851;SDS011;48553;50.766;2.900;2023-03-23T07:37:04;7.85;;;1.23;;
60851;SDS011;48553;50.766;2.900;2023-03-23T07:40:05;4.57;;;1.17;;
60851;SDS011;48553;50.766;2.900;2023-03-23T07:43:14;5.38;;;0.80;;
60851;SDS011;48553;50.766;2.900;2023-03-23T07:46:14;4.28;;;0.88;;
60851;SDS011;48553;50.766;2.900;2023-03-23T07:49:16;5.22;;;0.98;;
60851;SDS011;48553;50.766;2.900;2023-03-23T07:52:17;4.22;;;1.10;;
60851;SDS011;48553;50.766;2.900;2023-03-23T07:55:17;6.30;;;1.00;;
60851;SDS011;48553;50.766;2.900;2023-03-23T07:58:18;5.72;;;0.98;;
60851;SDS011;48553;50.766;2.900;2023-03-23T08:01:19;4.22;;;0.90;;
60851;SDS011;48553;50.766;2.900;2023-03-23T08:04:19;4.75;;;1.05;;
60851;SDS011;48553;50.766;2.900;2023-03-23T08:07:20;4.18;;;0.80;;
60851;SDS011;48553;50.766;2.900;2023-03-23T08:10:21;2.75;;;0.80;;
60851;SDS011;48553;50.766;2.900;2023-03-23T08:13:23;5.43;;;1.10;;
60851;SDS011;48553;50.766;2.900;2023-03-23T08:16:24;4.20;;;1.00;;
60851;SDS011;48553;50.766;2.900;2023-03-23T08:19:25;4.18;;;0.95;;
60851;SDS011;48553;50.766;2.900;2023-03-23T08:22:26;5.03;;;1.00;;
60851;SDS011;48553;50.766;2.900;2023-03-23T08:25:29;4.05;;;1.20;;
60851;SDS011;48553;50.766;2.900;2023-03-23T08:28:34;4.20;;;1.17;;
60851;SDS011;48553;50.766;2.900;2023-03-23T08:31:35;1.98;;;0.90;;
60851;SDS011;48553;50.766;2.900;2023-03-23T08:34:37;4.55;;;1.20;;
60851;SDS011;48553;50.766;2.900;2023-03-23T08:37:38;5.15;;;1.30;;
60851;SDS011;48553;50.766;2.900;2023-03-23T08:40:41;2.50;;;1.00;;
60851;SDS011;48553;50.766;2.900;2023-03-23T08:43:42;3.63;;;1.15;;
60851;SDS011;48553;50.766;2.900;2023-03-23T08:46:43;4.03;;;1.33;;
60851;SDS011;48553;50.766;2.900;2023-03-23T08:49:44;3.08;;;1.15;;
60851;SDS011;48553;50.766;2.900;2023-03-23T08:52:45;2.75;;;0.90;;
60851;SDS011;48553;50.766;2.900;2023-03-23T08:55:47;6.18;;;1.30;;
60851;SDS011;48553;50.766;2.900;2023-03-23T08:58:49;3.13;;;1.00;;
60851;SDS011;48553;50.766;2.900;2023-03-23T09:01:49;4.93;;;1.15;;
60851;SDS011;48553;50.766;2.900;2023-03-23T09:04:50;3.40;;;1.10;;
60851;SDS011;48553;50.766;2.900;2023-03-23T09:07:51;4.55;;;1.20;;
60851;SDS011;48553;50.766;2.900;2023-03-23T09:10:53;5.07;;;1.20;;
60851;SDS011;48553;50.766;2.900;2023-03-23T09:13:53;5.38;;;1.38;;
60851;SDS011;48553;50.766;2.900;2023-03-23T09:16:54;5.93;;;1.23;;
60851;SDS011;48553;50.766;2.900;2023-03-23T09:19:54;4.63;;;1.35;;
60851;SDS011;48553;50.766;2.900;2023-03-23T09:22:56;6.65;;;1.40;;
60851;SDS011;48553;50.766;2.900;2023-03-23T09:25:58;4.93;;;1.20;;
60851;SDS011;48553;50.766;2.900;2023-03-23T09:29:00;4.65;;;1.40;;
60851;SDS011;48553;50.766;2.900;2023-03-23T09:32:00;5.32;;;1.40;;
60851;SDS011;48553;50.766;2.900;2023-03-23T09:35:01;4.15;;;1.40;;
60851;SDS011;48553;50.766;2.900;2023-03-23T09:38:04;7.22;;;1.40;;
60851;SDS011;48553;50.766;2.900;2023-03-23T09:44:34;4.80;;;1.52;;
60851;SDS011;48553;50.766;2.900;2023-03-23T09:54:58;4.95;;;1.63;;
60851;SDS011;48553;50.766;2.900;2023-03-23T09:58:21;8.68;;;1.80;;
60851;SDS011;48553;50.766;2.900;2023-03-23T10:01:26;11.23;;;2.00;;
60851;SDS011;48553;50.766;2.900;2023-03-23T10:04:38;7.85;;;2.20;;
60851;SDS011;48553;50.766;2.900;2023-03-23T10:07:45;6.30;;;1.77;;
60851;SDS011;48553;50.766;2.900;2023-03-23T10:17:20;11.30;;;3.00;;
60851;SDS011;48553;50.766;2.900;2023-03-23T10:23:54;9.23;;;3.92;;
60851;SDS011;48553;50.766;2.900;2023-03-23T10:27:06;11.43;;;3.17;;
60851;SDS011;48553;50.766;2.900;2023-03-23T10:33:51;10.07;;;2.83;;
60851;SDS011;48553;50.766;2.900;2023-03-23T10:37:02;10.65;;;2.65;;
60851;SDS011;48553;50.766;2.900;2023-03-23T10:40:05;12.15;;;2.55;;
60851;SDS011;48553;50.766;2.900;2023-03-23T10:43:13;11.73;;;2.58;;
60851;SDS011;48553;50.766;2.900;2023-03-23T10:46:20;10.57;;;2.10;;
60851;SDS011;48553;50.766;2.900;2023-03-23T10:52:41;15.05;;;2.38;;
60851;SDS011;48553;50.766;2.900;2023-03-23T10:55:42;8.57;;;2.28;;
60851;SDS011;48553;50.766;2.900;2023-03-23T10:58:47;9.15;;;2.72;;
60851;SDS011;48553;50.766;2.900;2023-03-23T11:01:48;8.10;;;2.45;;
60851;SDS011;48553;50.766;2.900;2023-03-23T11:04:56;9.18;;;2.90;;
60851;SDS011;48553;50.766;2.900;2023-03-23T11:07:59;7.82;;;2.40;;
60851;SDS011;48553;50.766;2.900;2023-03-23T11:11:11;9.68;;;2.10;;
60851;SDS011;48553;50.766;2.900;2023-03-23T11:17:28;8.77;;;2.20;;
60851;SDS011;48553;50.766;2.900;2023-03-23T11:20:32;10.70;;;2.22;;
60851;SDS011;48553;50.766;2.900;2023-03-23T11:23:38;12.98;;;2.50;;
60851;SDS011;48553;50.766;2.900;2023-03-23T11:26:43;13.40;;;2.55;;
60851;SDS011;48553;50.766;2.900;2023-03-23T11:29:55;10.52;;;2.30;;
60851;SDS011;48553;50.766;2.900;2023-03-23T11:33:00;10.75;;;2.30;;
60851;SDS011;48553;50.766;2.900;2023-03-23T11:36:02;9.57;;;2.38;;
60851;SDS011;48553;50.766;2.900;2023-03-23T11:39:53;9.38;;;2.90;;
60851;SDS011;48553;50.766;2.900;2023-03-23T11:42:36;13.20;;;2.35;;
60851;SDS011;48553;50.766;2.900;2023-03-23T11:49:38;12.55;;;2.50;;
60851;SDS011;48553;50.766;2.900;2023-03-23T11:56:23;10.50;;;2.28;;
60851;SDS011;48553;50.766;2.900;2023-03-23T11:59:33;11.32;;;2.88;;
60851;SDS011;48553;50.766;2.900;2023-03-23T12:06:06;10.85;;;2.28;;
60851;SDS011;48553;50.766;2.900;2023-03-23T12:38:16;11.38;;;2.40;;
60851;SDS011;48553;50.766;2.900;2023-03-23T12:48:24;10.95;;;2.20;;
60851;SDS011;48553;50.766;2.900;2023-03-23T13:04:29;10.30;;;2.30;;
60851;SDS011;48553;50.766;2.900;2023-03-23T13:07:41;11.13;;;2.42;;
60851;SDS011;48553;50.766;2.900;2023-03-23T13:10:46;7.03;;;2.17;;
60851;SDS011;48553;50.766;2.900;2023-03-23T13:13:52;10.23;;;2.28;;
60851;SDS011;48553;50.766;2.900;2023-03-23T13:20:30;10.13;;;2.67;;
60851;SDS011;48553;50.766;2.900;2023-03-23T13:23:44;9.95;;;2.28;;
60851;SDS011;48553;50.766;2.900;2023-03-23T13:26:49;16.15;;;2.63;;
60851;SDS011;48553;50.766;2.900;2023-03-23T13:29:50;9.32;;;2.30;;
60851;SDS011;48553;50.766;2.900;2023-03-23T13:32:51;13.07;;;2.63;;
60851;SDS011;48553;50.766;2.900;2023-03-23T13:35:53;9.57;;;2.20;;
60851;SDS011;48553;50.766;2.900;2023-03-23T13:38:53;9.10;;;2.15;;
60851;SDS011;48553;50.766;2.900;2023-03-23T13:45:52;9.02;;;2.30;;
60851;SDS011;48553;50.766;2.900;2023-03-23T13:48:45;11.52;;;2.35;;
60851;SDS011;48553;50.766;2.900;2023-03-23T13:51:53;10.30;;;2.00;;
60851;SDS011;48553;50.766;2.900;2023-03-23T13:58:23;8.68;;;2.30;;
60851;SDS011;48553;50.766;2.900;2023-03-23T14:01:35;8.52;;;2.40;;
60851;SDS011;48553;50.766;2.900;2023-03-23T14:04:39;8.57;;;1.85;;
60851;SDS011;48553;50.766;2.900;2023-03-23T14:07:59;10.57;;;2.20;;
60851;SDS011;48553;50.766;2.900;2023-03-23T14:11:10;9.93;;;2.10;;
60851;SDS011;48553;50.766;2.900;2023-03-23T14:15:00;7.20;;;1.80;;
60851;SDS011;48553;50.766;2.900;2023-03-23T14:17:51;14.20;;;2.08;;
60851;SDS011;48553;50.766;2.900;2023-03-23T14:20:51;9.30;;;1.90;;
60851;SDS011;48553;50.766;2.900;2023-03-23T14:23:52;11.20;;;2.33;;
60851;SDS011;48553;50.766;2.900;2023-03-23T14:27:02;12.43;;;2.10;;
60851;SDS011;48553;50.766;2.900;2023-03-23T14:30:14;7.13;;;1.77;;
60851;SDS011;48553;50.766;2.900;2023-03-23T14:33:16;11.70;;;2.00;;
60851;SDS011;48553;50.766;2.900;2023-03-23T14:36:23;8.98;;;2.13;;
60851;SDS011;48553;50.766;2.900;2023-03-23T14:39:27;8.27;;;1.90;;
60851;SDS011;48553;50.766;2.900;2023-03-23T14:42:31;9.60;;;1.92;;
60851;SDS011;48553;50.766;2.900;2023-03-23T14:45:33;10.30;;;2.08;;
60851;SDS011;48553;50.766;2.900;2023-03-23T14:48:34;8.05;;;1.80;;
60851;SDS011;48553;50.766;2.900;2023-03-23T14:51:36;9.93;;;1.98;;
60851;SDS011;48553;50.766;2.900;2023-03-23T14:54:37;8.82;;;2.17;;
60851;SDS011;48553;50.766;2.900;2023-03-23T14:57:41;9.25;;;1.98;;
60851;SDS011;48553;50.766;2.900;2023-03-23T15:00:43;9.38;;;2.13;;
60851;SDS011;48553;50.766;2.900;2023-03-23T15:07:05;8.98;;;2.10;;
60851;SDS011;48553;50.766;2.900;2023-03-23T15:10:07;8.85;;;1.85;;
60851;SDS011;48553;50.766;2.900;2023-03-23T15:13:15;8.85;;;2.08;;
60851;SDS011;48553;50.766;2.900;2023-03-23T15:16:21;13.70;;;1.90;;
60851;SDS011;48553;50.766;2.900;2023-03-23T15:22:44;9.82;;;1.88;;
60851;SDS011;48553;50.766;2.900;2023-03-23T15:25:52;7.65;;;1.75;;
60851;SDS011;48553;50.766;2.900;2023-03-23T15:29:02;10.25;;;1.92;;
60851;SDS011;48553;50.766;2.900;2023-03-23T15:32:12;6.22;;;1.45;;
60851;SDS011;48553;50.766;2.900;2023-03-23T15:35:17;9.00;;;1.80;;
60851;SDS011;48553;50.766;2.900;2023-03-23T15:38:21;7.50;;;1.77;;
60851;SDS011;48553;50.766;2.900;2023-03-23T15:41:26;6.43;;;1.80;;
60851;SDS011;48553;50.766;2.900;2023-03-23T15:44:32;6.03;;;1.77;;
60851;SDS011;48553;50.766;2.900;2023-03-23T15:47:35;6.43;;;1.48;;
60851;SDS011;48553;50.766;2.900;2023-03-23T15:50:41;7.18;;;1.52;;
60851;SDS011;48553;50.766;2.900;2023-03-23T15:53:43;7.75;;;1.60;;
60851;SDS011;48553;50.766;2.900;2023-03-23T15:56:43;7.00;;;1.50;;
60851;SDS011;48553;50.766;2.900;2023-03-23T15:59:44;8.88;;;1.80;;
60851;SDS011;48553;50.766;2.900;2023-03-23T16:02:46;9.60;;;2.03;;
60851;SDS011;48553;50.766;2.900;2023-03-23T16:05:48;6.25;;;1.63;;
60851;SDS011;48553;50.766;2.900;2023-03-23T16:08:49;6.30;;;1.70;;
60851;SDS011;48553;50.766;2.900;2023-03-23T16:11:49;8.88;;;2.00;;
60851;SDS011;48553;50.766;2.900;2023-03-23T16:14:50;9.55;;;2.10;;
60851;SDS011;48553;50.766;2.900;2023-03-23T16:17:50;7.68;;;1.80;;
60851;SDS011;48553;50.766;2.900;2023-03-23T16:20:51;9.93;;;2.17;;
60851;SDS011;48553;50.766;2.900;2023-03-23T16:23:51;8.43;;;1.65;;
60851;SDS011;48553;50.766;2.900;2023-03-23T16:26:53;9.07;;;2.15;;
60851;SDS011;48553;50.766;2.900;2023-03-23T16:29:53;6.68;;;2.10;;
60851;SDS011;48553;50.766;2.900;2023-03-23T16:32:54;9.15;;;2.17;;
60851;SDS011;48553;50.766;2.900;2023-03-23T16:35:55;7.72;;;1.90;;
60851;SDS011;48553;50.766;2.900;2023-03-23T16:38:57;8.55;;;2.00;;
60851;SDS011;48553;50.766;2.900;2023-03-23T16:41:57;10.35;;;2.40;;
60851;SDS011;48553;50.766;2.900;2023-03-23T16:44:58;9.63;;;1.77;;
60851;SDS011;48553;50.766;2.900;2023-03-23T16:47:58;7.03;;;1.90;;
60851;SDS011;48553;50.766;2.900;2023-03-23T16:51:00;8.15;;;2.28;;
60851;SDS011;48553;50.766;2.900;2023-03-23T16:54:00;8.10;;;2.00;;
60851;SDS011;48553;50.766;2.900;2023-03-23T16:57:01;14.02;;;2.00;;
60851;SDS011;48553;50.766;2.900;2023-03-23T17:00:03;9.82;;;1.90;;
60851;SDS011;48553;50.766;2.900;2023-03-23T17:03:06;8.15;;;2.20;;
60851;SDS011;48553;50.766;2.900;2023-03-23T17:06:07;10.07;;;1.90;;
60851;SDS011;48553;50.766;2.900;2023-03-23T17:09:08;10.70;;;2.15;;
60851;SDS011;48553;50.766;2.900;2023-03-23T17:12:09;6.47;;;1.90;;
60851;SDS011;48553;50.766;2.900;2023-03-23T17:15:10;9.90;;;2.60;;
60851;SDS011;48553;50.766;2.900;2023-03-23T17:18:11;8.27;;;1.98;;
60851;SDS011;48553;50.766;2.900;2023-03-23T17:21:12;11.20;;;2.30;;
60851;SDS011;48553;50.766;2.900;2023-03-23T17:24:13;9.68;;;2.30;;
60851;SDS011;48553;50.766;2.900;2023-03-23T17:27:17;8.05;;;2.00;;
60851;SDS011;48553;50.766;2.900;2023-03-23T17:30:18;13.07;;;2.30;;
60851;SDS011;48553;50.766;2.900;2023-03-23T17:33:19;9.27;;;2.17;;
60851;SDS011;48553;50.766;2.900;2023-03-23T17:36:20;11.93;;;2.33;;
60851;SDS011;48553;50.766;2.900;2023-03-23T17:39:20;10.07;;;2.50;;
60851;SDS011;48553;50.766;2.900;2023-03-23T17:42:21;12.38;;;2.60;;
60851;SDS011;48553;50.766;2.900;2023-03-23T17:45:21;9.65;;;2.42;;
60851;SDS011;48553;50.766;2.900;2023-03-23T17:48:22;12.32;;;2.47;;
60851;SDS011;48553;50.766;2.900;2023-03-23T17:51:22;12.25;;;2.60;;
60851;SDS011;48553;50.766;2.900;2023-03-23T17:54:23;9.85;;;2.25;;
60851;SDS011;48553;50.766;2.900;2023-03-23T17:57:24;13.43;;;2.35;;
60851;SDS011;48553;50.766;2.900;2023-03-23T18:00:25;14.73;;;2.60;;
60851;SDS011;48553;50.766;2.900;2023-03-23T18:03:25;10.55;;;2.42;;
60851;SDS011;48553;50.766;2.900;2023-03-23T18:06:26;10.20;;;2.28;;
60851;SDS011;48553;50.766;2.900;2023-03-23T18:09:26;12.10;;;2.92;;
60851;SDS011;48553;50.766;2.900;2023-03-23T18:15:30;10.32;;;2.50;;
60851;SDS011;48553;50.766;2.900;2023-03-23T18:18:32;10.02;;;2.47;;
60851;SDS011;48553;50.766;2.900;2023-03-23T18:21:33;11.35;;;2.75;;
60851;SDS011;48553;50.766;2.900;2023-03-23T18:24:33;11.90;;;2.58;;
60851;SDS011;48553;50.766;2.900;2023-03-23T18:27:34;14.07;;;3.00;;
60851;SDS011;48553;50.766;2.900;2023-03-23T18:30:35;13.15;;;2.60;;
60851;SDS011;48553;50.766;2.900;2023-03-23T18:33:35;13.98;;;2.65;;
60851;SDS011;48553;50.766;2.900;2023-03-23T18:36:37;9.30;;;2.75;;
60851;SDS011;48553;50.766;2.900;2023-03-23T18:39:37;10.63;;;2.58;;
60851;SDS011;48553;50.766;2.900;2023-03-23T18:42:38;11.52;;;2.80;;
60851;SDS011;48553;50.766;2.900;2023-03-23T18:45:40;13.32;;;2.67;;
60851;SDS011;48553;50.766;2.900;2023-03-23T18:48:40;9.50;;;2.35;;
60851;SDS011;48553;50.766;2.900;2023-03-23T18:51:41;11.55;;;2.72;;
60851;SDS011;48553;50.766;2.900;2023-03-23T18:54:41;11.40;;;2.40;;
60851;SDS011;48553;50.766;2.900;2023-03-23T18:57:44;10.80;;;3.00;;
60851;SDS011;48553;50.766;2.900;2023-03-23T19:00:45;8.95;;;2.65;;
60851;SDS011;48553;50.766;2.900;2023-03-23T19:03:46;7.32;;;2.38;;
60851;SDS011;48553;50.766;2.900;2023-03-23T19:06:48;8.80;;;2.42;;
60851;SDS011;48553;50.766;2.900;2023-03-23T19:09:49;9.52;;;2.90;;
60851;SDS011;48553;50.766;2.900;2023-03-23T19:12:49;11.65;;;2.65;;
60851;SDS011;48553;50.766;2.900;2023-03-23T19:15:50;9.95;;;2.55;;
60851;SDS011;48553;50.766;2.900;2023-03-23T19:18:51;10.02;;;2.35;;
60851;SDS011;48553;50.766;2.900;2023-03-23T19:21:52;13.00;;;2.78;;
60851;SDS011;48553;50.766;2.900;2023-03-23T19:24:52;11.05;;;2.60;;
60851;SDS011;48553;50.766;2.900;2023-03-23T19:27:53;10.57;;;2.40;;
60851;SDS011;48553;50.766;2.900;2023-03-23T19:30:54;8.95;;;2.38;;
60851;SDS011;48553;50.766;2.900;2023-03-23T19:33:56;7.65;;;2.50;;
60851;SDS011;48553;50.766;2.900;2023-03-23T19:36:57;10.85;;;2.67;;
60851;SDS011;48553;50.766;2.900;2023-03-23T19:39:58;10.55;;;2.53;;
60851;SDS011;48553;50.766;2.900;2023-03-23T19:42:58;8.70;;;2.60;;
60851;SDS011;48553;50.766;2.900;2023-03-23T19:45:59;7.90;;;2.50;;
60851;SDS011;48553;50.766;2.900;2023-03-23T19:48:59;6.43;;;2.17;;
60851;SDS011;48553;50.766;2.900;2023-03-23T19:52:00;8.13;;;2.30;;
60851;SDS011;48553;50.766;2.900;2023-03-23T19:55:02;6.25;;;2.15;;
60851;SDS011;48553;50.766;2.900;2023-03-23T19:58:02;15.85;;;2.80;;
60851;SDS011;48553;50.766;2.900;2023-03-23T20:01:03;7.82;;;2.70;;
60851;SDS011;48553;50.766;2.900;2023-03-23T20:04:03;6.55;;;2.60;;
60851;SDS011;48553;50.766;2.900;2023-03-23T20:07:05;7.72;;;2.50;;
60851;SDS011;48553;50.766;2.900;2023-03-23T20:10:06;6.97;;;2.30;;
60851;SDS011;48553;50.766;2.900;2023-03-23T20:13:07;7.53;;;2.08;;
60851;SDS011;48553;50.766;2.900;2023-03-23T20:16:10;7.90;;;2.47;;
60851;SDS011;48553;50.766;2.900;2023-03-23T20:19:10;7.78;;;1.92;;
60851;SDS011;48553;50.766;2.900;2023-03-23T20:22:11;8.80;;;2.70;;
60851;SDS011;48553;50.766;2.900;2023-03-23T20:25:13;9.20;;;2.38;;
60851;SDS011;48553;50.766;2.900;2023-03-23T20:28:14;10.73;;;2.30;;
60851;SDS011;48553;50.766;2.900;2023-03-23T20:31:19;8.57;;;2.40;;
60851;SDS011;48553;50.766;2.900;2023-03-23T20:34:21;7.20;;;2.38;;